Time;durP1;ratioP1;P1;durP2;ratioP2;P2;SDS_P1;SDS_P2;PMS_P1;PMS_P2;Temp;Humidity;BMP_temperature;BMP_pressure;BME280_temperature;BME280_humidity;BME280_pressure;Samples;Min_cycle;Max_cycle;Signal;HPM_P1;HPM_P2
2024/03/21 00:00:11;;;;;;;25.23;14.25;;;;;;;6.23;95.11;101633.84;4890490;29;20059;-64
2024/03/21 00:02:38;;;;;;;29.38;15.05;;;;;;;6.27;95.25;101631.31;4908806;29;20078;-64
2024/03/21 00:05:06;;;;;;;26.63;15.18;;;;;;;6.29;94.97;101618.91;4906809;29;20065;-63
2024/03/21 00:07:33;;;;;;;27.80;15.48;;;;;;;6.30;95.02;101617.00;4924753;29;20413;-63
2024/03/21 00:10:00;;;;;;;28.80;16.25;;;;;;;6.31;95.02;101608.44;4924688;29;20078;-63
2024/03/21 00:12:26;;;;;;;29.15;14.38;;;;;;;6.29;94.84;101613.41;4910609;29;20047;-63
2024/03/21 00:14:53;;;;;;;29.05;15.75;;;;;;;6.33;94.95;101611.69;4910588;29;20056;-65
2024/03/21 00:17:19;;;;;;;27.88;15.73;;;;;;;6.36;94.61;101613.03;4910901;29;20056;-64
2024/03/21 00:19:45;;;;;;;25.88;15.15;;;;;;;6.35;94.28;101612.25;4910370;29;20065;-63
2024/03/21 00:22:12;;;;;;;22.48;14.23;;;;;;;6.34;94.75;101618.03;4910714;29;20139;-63
2024/03/21 00:24:38;;;;;;;25.25;13.82;;;;;;;6.33;94.56;101628.19;4910372;29;20052;-64
2024/03/21 00:27:05;;;;;;;22.75;14.55;;;;;;;6.36;94.68;101624.84;4908273;29;20514;-64
2024/03/21 00:29:32;;;;;;;25.20;15.02;;;;;;;6.38;94.20;101617.13;4910669;29;20406;-63
2024/03/21 00:31:59;;;;;;;25.70;15.50;;;;;;;6.38;94.22;101608.88;4909911;29;20059;-63
2024/03/21 00:34:26;;;;;;;31.95;16.80;;;;;;;6.37;93.98;101604.50;4908806;29;20059;-63
2024/03/21 00:36:52;;;;;;;24.90;14.85;;;;;;;6.34;94.19;101598.78;4910172;29;20052;-63
2024/03/21 00:39:19;;;;;;;30.73;14.70;;;;;;;6.35;94.14;101598.50;4910099;29;20052;-63
2024/03/21 00:41:46;;;;;;;29.20;15.65;;;;;;;6.31;93.97;101580.94;4914461;29;20548;-63
2024/03/21 00:44:13;;;;;;;22.90;14.43;;;;;;;6.30;94.02;101586.75;4894452;29;20572;-64
2024/03/21 00:46:39;;;;;;;25.20;13.75;;;;;;;6.32;94.25;101579.84;4906930;29;20072;-63
2024/03/21 00:49:06;;;;;;;25.02;12.25;;;;;;;6.32;94.24;101568.00;4905056;29;20059;-63
2024/03/21 00:51:33;;;;;;;22.65;12.50;;;;;;;6.33;94.12;101569.66;4910234;29;20489;-63
2024/03/21 00:54:00;;;;;;;21.42;13.07;;;;;;;6.32;94.21;101574.31;4910021;29;20520;-63
2024/03/21 00:56:26;;;;;;;19.92;11.80;;;;;;;6.34;94.05;101566.59;4910172;29;20396;-64
2024/03/21 00:58:54;;;;;;;22.40;12.38;;;;;;;6.34;94.03;101572.09;4910317;29;20052;-63
2024/03/21 01:01:21;;;;;;;21.73;12.20;;;;;;;6.33;94.12;101562.19;4910108;29;20056;-64
2024/03/21 01:03:48;;;;;;;19.35;11.77;;;;;;;6.33;94.23;101559.44;4909526;29;20052;-64
2024/03/21 01:06:14;;;;;;;19.63;11.85;;;;;;;6.34;94.26;101563.84;4909884;29;20048;-63
2024/03/21 01:08:58;;;;;;;21.75;12.68;;;;;;;6.37;94.52;101571.50;4911199;29;20029;-63
2024/03/21 01:11:25;;;;;;;19.75;12.80;;;;;;;6.38;94.50;101556.63;4906900;29;20056;-63
2024/03/21 01:13:51;;;;;;;20.13;11.32;;;;;;;6.39;94.48;101558.25;4904190;29;20516;-64
2024/03/21 01:16:18;;;;;;;21.67;12.00;;;;;;;6.41;94.39;101550.53;4901027;29;20044;-63
2024/03/21 01:18:45;;;;;;;25.63;13.48;;;;;;;6.42;94.52;101556.84;4925640;29;20048;-63
2024/03/21 01:21:11;;;;;;;20.48;12.65;;;;;;;6.46;94.74;101569.69;4910021;29;20582;-63
2024/03/21 01:23:37;;;;;;;18.02;10.95;;;;;;;6.48;94.49;101575.75;4909389;29;20062;-63
2024/03/21 01:26:04;;;;;;;17.92;10.27;;;;;;;6.52;94.50;101573.19;4909851;29;20056;-63
2024/03/21 01:28:30;;;;;;;20.55;12.13;;;;;;;6.53;94.53;101581.16;4909518;29;20044;-63
2024/03/21 01:30:59;;;;;;;17.15;9.90;;;;;;;6.56;94.46;101580.59;4894202;29;20422;-63
2024/03/21 01:33:27;;;;;;;17.40;10.18;;;;;;;6.58;94.45;101589.34;4909666;29;20048;-64
2024/03/21 01:35:53;;;;;;;17.42;9.23;;;;;;;6.61;94.35;101577.75;4909227;29;20052;-64
2024/03/21 01:38:20;;;;;;;18.23;9.40;;;;;;;6.63;94.41;101575.50;4906326;29;20641;-63
2024/03/21 01:40:46;;;;;;;20.15;12.00;;;;;;;6.66;94.46;101565.84;4905584;29;20422;-63
2024/03/21 01:43:27;;;;;;;16.88;9.68;;;;;;;6.68;94.22;101575.44;4893172;29;20079;-63
2024/03/21 01:46:22;;;;;;;13.82;9.10;;;;;;;6.72;94.35;101568.19;4907901;29;20580;-65
2024/03/21 01:48:50;;;;;;;15.32;8.10;;;;;;;6.73;94.28;101564.34;4895929;29;20475;-63
2024/03/21 01:51:21;;;;;;;19.02;10.55;;;;;;;6.75;94.49;101564.06;4909742;29;20427;-64
2024/03/21 01:53:50;;;;;;;11.35;7.88;;;;;;;6.78;94.21;101568.94;4910814;29;20056;-63
2024/03/21 01:56:17;;;;;;;15.45;9.43;;;;;;;6.79;94.30;101550.50;4899183;29;20984;-63
2024/03/21 01:58:43;;;;;;;16.15;8.70;;;;;;;6.78;94.32;101557.13;4909570;29;20053;-64
2024/03/21 02:01:22;;;;;;;15.35;10.10;;;;;;;6.80;94.41;101552.13;4910613;29;20434;-63
2024/03/21 02:03:51;;;;;;;13.88;9.15;;;;;;;6.81;94.56;101543.56;4911085;29;20052;-64
2024/03/21 02:06:19;;;;;;;13.82;8.30;;;;;;;6.82;94.40;101547.97;4919464;29;20130;-63
2024/03/21 02:08:45;;;;;;;17.63;8.93;;;;;;;6.83;94.62;101548.78;4897161;29;20071;-64
2024/03/21 02:11:12;;;;;;;16.58;9.07;;;;;;;6.83;94.62;101541.31;4911719;29;20418;-63
2024/03/21 02:13:39;;;;;;;18.33;9.98;;;;;;;6.83;94.65;101546.03;4911411;29;20055;-64
2024/03/21 02:16:05;;;;;;;17.85;9.88;;;;;;;6.83;94.68;101537.78;4912377;29;20068;-63
2024/03/21 02:18:31;;;;;;;15.82;8.52;;;;;;;6.82;94.62;101538.88;4911748;29;20048;-63
2024/03/21 02:20:58;;;;;;;16.73;8.90;;;;;;;6.81;94.44;101540.00;4902040;29;20040;-63
2024/03/21 02:23:24;;;;;;;17.17;9.15;;;;;;;6.79;94.51;101529.31;4911308;29;20051;-63
2024/03/21 02:25:51;;;;;;;16.13;8.82;;;;;;;6.78;94.57;101529.63;4912237;29;20052;-64
2024/03/21 02:28:17;;;;;;;13.00;8.90;;;;;;;6.78;94.58;101521.34;4895622;29;20052;-63
2024/03/21 02:30:46;;;;;;;13.48;8.00;;;;;;;6.78;94.57;101535.13;4910535;29;20047;-63
2024/03/21 02:33:12;;;;;;;14.32;8.27;;;;;;;6.79;94.65;101536.72;4908619;29;20422;-63
2024/03/21 02:35:39;;;;;;;15.52;8.93;;;;;;;6.77;94.45;101530.72;4906657;29;20060;-63
2024/03/21 02:38:05;;;;;;;16.70;9.60;;;;;;;6.79;94.69;101522.97;4911490;29;20060;-63
2024/03/21 02:40:31;;;;;;;13.48;8.75;;;;;;;6.79;94.69;101522.97;4912088;29;20048;-63
2024/03/21 02:42:57;;;;;;;15.88;8.20;;;;;;;6.78;94.79;101522.16;4912111;29;20139;-63
2024/03/21 02:45:24;;;;;;;22.73;9.00;;;;;;;6.77;94.57;101511.47;4911588;29;20067;-64
2024/03/21 02:47:50;;;;;;;15.65;8.57;;;;;;;6.77;94.64;101500.44;4909121;29;20428;-63
2024/03/21 02:50:16;;;;;;;12.13;8.60;;;;;;;6.78;94.84;101513.09;4909059;29;20107;-63
2024/03/21 02:52:42;;;;;;;12.07;7.95;;;;;;;6.79;94.72;101507.28;4910423;29;20062;-63
2024/03/21 02:55:09;;;;;;;12.63;7.30;;;;;;;6.79;94.69;101503.72;4910388;29;20044;-64
2024/03/21 02:57:35;;;;;;;10.27;7.75;;;;;;;6.80;94.71;101494.34;4907419;29;20052;-63
2024/03/21 03:00:01;;;;;;;13.40;8.25;;;;;;;6.82;94.91;101492.91;4910512;29;20056;-63
2024/03/21 03:02:28;;;;;;;14.98;6.97;;;;;;;6.81;94.77;101498.72;4993558;23;20047;-63
2024/03/21 03:04:54;;;;;;;16.38;7.43;;;;;;;6.81;94.66;101487.69;4961322;28;20047;-64
2024/03/21 03:07:20;;;;;;;11.13;7.03;;;;;;;6.85;94.84;101480.50;4955740;28;20051;-63
2024/03/21 03:09:46;;;;;;;11.73;7.65;;;;;;;6.85;94.81;101477.75;4949272;28;20047;-63
2024/03/21 03:12:13;;;;;;;23.58;8.73;;;;;;;6.86;94.89;101480.19;4932141;29;20779;-63
2024/03/21 03:14:42;;;;;;;17.67;7.80;;;;;;;6.88;94.64;101482.66;4945103;28;20083;-63
2024/03/21 03:17:08;;;;;;;10.30;7.10;;;;;;;6.90;94.80;101472.13;4946919;28;20055;-63
2024/03/21 03:19:34;;;;;;;10.90;7.07;;;;;;;6.91;94.88;101482.03;4947883;28;20051;-63
2024/03/21 03:22:00;;;;;;;14.93;8.60;;;;;;;6.92;94.60;101486.41;4930567;29;20059;-63
2024/03/21 03:24:27;;;;;;;14.43;8.95;;;;;;;6.96;94.80;101479.19;4930898;28;20046;-63
2024/03/21 03:26:53;;;;;;;9.75;6.88;;;;;;;6.97;94.66;101489.88;4931085;28;20044;-65
2024/03/21 03:29:19;;;;;;;10.77;7.57;;;;;;;6.99;94.81;101484.09;4945892;28;20051;-63
2024/03/21 03:31:46;;;;;;;13.00;8.35;;;;;;;7.00;94.60;101488.47;4943669;28;20410;-63
2024/03/21 03:36:57;;;;;;;14.00;6.63;;;;;;;7.02;94.67;101495.31;4943577;28;20052;-63
2024/03/21 03:39:24;;;;;;;9.20;7.63;;;;;;;7.01;94.75;101493.69;4946493;28;20421;-63
2024/03/21 03:41:50;;;;;;;12.80;6.97;;;;;;;7.03;94.60;101491.44;4947550;28;20059;-63
2024/03/21 03:44:16;;;;;;;10.82;6.32;;;;;;;7.05;94.91;101499.38;4949835;28;20048;-64
2024/03/21 03:46:43;;;;;;;15.45;7.63;;;;;;;7.06;94.68;101503.78;4938755;28;20066;-63
2024/03/21 03:49:09;;;;;;;9.30;6.65;;;;;;;7.07;94.68;101497.16;4946031;29;20051;-63
2024/03/21 03:51:35;;;;;;;17.30;7.22;;;;;;;7.06;94.59;101495.53;4959386;28;20047;-63
2024/03/21 03:54:01;;;;;;;11.77;7.88;;;;;;;7.06;94.69;101495.53;4947305;28;20535;-63
2024/03/21 03:56:28;;;;;;;12.98;6.85;;;;;;;7.07;94.95;101497.16;4947560;28;20047;-63
2024/03/21 03:58:54;;;;;;;10.95;7.43;;;;;;;7.08;94.77;101507.03;4963094;28;20058;-63
2024/03/21 04:01:20;;;;;;;15.02;7.70;;;;;;;7.09;94.69;101500.44;4946564;28;20063;-63
2024/03/21 04:03:46;;;;;;;10.80;7.93;;;;;;;7.11;94.53;101503.69;4946719;28;20062;-63
2024/03/21 04:06:14;;;;;;;11.32;8.10;;;;;;;7.11;94.78;101498.19;4944344;28;20054;-64
2024/03/21 04:08:40;;;;;;;12.73;8.02;;;;;;;7.13;94.57;101495.94;4947252;28;20067;-64
2024/03/21 04:11:13;;;;;;;14.82;8.05;;;;;;;7.14;94.69;101483.81;4931152;29;20058;-63
2024/03/21 04:13:39;;;;;;;13.90;7.70;;;;;;;7.13;94.98;101473.91;4947039;28;20047;-63
2024/03/21 04:16:12;;;;;;;11.82;7.32;;;;;;;7.14;94.74;101453.53;4947294;28;20054;-63
2024/03/21 04:18:38;;;;;;;15.15;8.02;;;;;;;7.14;94.74;101448.84;4930263;28;20051;-63
2024/03/21 04:21:05;;;;;;;10.45;7.53;;;;;;;7.13;94.78;101449.13;4945642;28;20059;-63
2024/03/21 04:23:31;;;;;;;12.23;8.65;;;;;;;7.14;94.99;101442.50;4943325;28;20445;-63
2024/03/21 04:25:57;;;;;;;17.45;9.48;;;;;;;7.15;94.83;101435.84;4960717;28;20394;-63
2024/03/21 04:28:23;;;;;;;14.77;7.45;;;;;;;7.15;94.79;101433.94;4957023;28;20375;-63
2024/03/21 04:30:50;;;;;;;11.93;7.32;;;;;;;7.17;94.81;101436.38;4943203;28;20057;-63
2024/03/21 04:33:16;;;;;;;10.05;7.45;;;;;;;7.16;94.73;101434.75;4930010;29;20064;-63
2024/03/21 04:35:42;;;;;;;14.20;9.02;;;;;;;7.19;95.05;101423.13;4943279;28;20075;-63
2024/03/21 04:38:09;;;;;;;16.55;8.75;;;;;;;7.19;94.95;101401.91;4935186;28;20047;-63
2024/03/21 04:40:35;;;;;;;15.98;8.68;;;;;;;7.21;94.93;101412.63;4944236;28;20421;-63
2024/03/21 04:43:02;;;;;;;10.80;8.07;;;;;;;7.22;94.90;101406.00;4944535;28;20059;-63
2024/03/21 04:45:29;;;;;;;12.70;7.93;;;;;;;7.24;94.68;101399.06;4952103;28;20079;-63
2024/03/21 04:47:55;;;;;;;11.18;6.72;;;;;;;7.26;94.70;101390.47;4943446;28;20048;-64
2024/03/21 04:50:23;;;;;;;12.23;7.03;;;;;;;7.28;94.66;101389.03;4946289;28;20062;-63
2024/03/21 04:52:49;;;;;;;13.30;9.15;;;;;;;7.29;94.62;101374.16;4945306;28;20051;-63
2024/03/21 04:55:16;;;;;;;15.93;9.73;;;;;;;7.31;94.68;101373.84;4946081;28;20050;-63
2024/03/21 04:57:42;;;;;;;13.95;8.00;;;;;;;7.32;94.64;101386.50;4945730;28;20420;-63
2024/03/21 05:00:13;;;;;;;13.23;8.18;;;;;;;7.31;94.66;101382.09;4962626;28;20059;-63
2024/03/21 05:02:42;;;;;;;9.35;6.80;;;;;;;7.34;94.72;101384.25;4935320;29;20074;-63
2024/03/21 05:05:09;;;;;;;15.18;7.55;;;;;;;7.34;94.64;101378.72;4929682;29;20051;-63
2024/03/21 05:07:35;;;;;;;15.82;8.30;;;;;;;7.36;94.57;101376.47;4948431;28;20046;-63
2024/03/21 05:10:03;;;;;;;12.68;8.18;;;;;;;7.37;94.75;101369.84;4935890;28;20052;-63
2024/03/21 05:12:30;;;;;;;12.45;7.00;;;;;;;7.37;94.57;101380.88;4942214;28;20052;-63
2024/03/21 05:14:56;;;;;;;12.25;7.00;;;;;;;7.38;94.62;101377.00;4945930;28;20055;-63
2024/03/21 05:17:22;;;;;;;9.13;6.28;;;;;;;7.40;94.53;101371.19;4951032;28;20445;-64
2024/03/21 05:19:49;;;;;;;11.90;7.43;;;;;;;7.42;94.65;101377.19;4946035;28;20062;-63
2024/03/21 05:22:16;;;;;;;13.60;7.55;;;;;;;7.41;94.57;101370.88;4948361;28;20051;-63
2024/03/21 05:24:43;;;;;;;12.18;7.43;;;;;;;7.43;94.72;101374.16;4949675;28;20059;-63
2024/03/21 05:27:10;;;;;;;10.80;6.82;;;;;;;7.45;94.57;101377.41;4947789;28;20417;-63
2024/03/21 05:29:36;;;;;;;13.32;7.28;;;;;;;7.46;94.70;101381.78;4949459;28;20059;-63
2024/03/21 05:32:03;;;;;;;12.57;7.07;;;;;;;7.49;94.55;101383.13;4944855;28;20048;-63
2024/03/21 05:34:29;;;;;;;9.73;6.68;;;;;;;7.50;94.68;101374.53;4931107;29;20523;-63
2024/03/21 05:36:56;;;;;;;13.02;7.22;;;;;;;7.50;94.62;101377.28;4948775;29;20047;-63
2024/03/21 05:39:22;;;;;;;15.00;7.05;;;;;;;7.52;94.57;101372.28;4947992;28;20078;-63
2024/03/21 05:41:49;;;;;;;11.82;6.20;;;;;;;7.54;94.45;101386.56;4949779;28;20055;-63
2024/03/21 05:44:15;;;;;;;13.80;6.43;;;;;;;7.54;94.63;101392.09;4962796;28;20055;-63
2024/03/21 05:46:41;;;;;;;14.45;5.93;;;;;;;7.56;94.60;101383.50;4932564;29;20070;-63
2024/03/21 05:49:10;;;;;;;9.20;5.32;;;;;;;7.58;94.44;101379.31;4948216;28;20056;-63
2024/03/21 05:51:36;;;;;;;12.75;5.43;;;;;;;7.59;94.39;101383.72;4948919;28;20047;-63
2024/03/21 05:54:05;;;;;;;14.05;6.00;;;;;;;7.60;94.57;101379.81;4936678;28;20043;-62
2024/03/21 05:56:32;;;;;;;13.25;6.28;;;;;;;7.61;94.43;101389.72;4947561;28;20051;-63
2024/03/21 05:58:58;;;;;;;13.18;6.90;;;;;;;7.63;94.41;101390.22;4931714;28;20425;-62
2024/03/21 06:01:32;;;;;;;13.15;4.90;;;;;;;7.64;94.41;101391.84;4939620;29;20043;-63
2024/03/21 06:03:59;;;;;;;9.55;5.22;;;;;;;7.66;94.43;101402.56;4943290;28;20047;-62
2024/03/21 06:06:26;;;;;;;13.52;5.93;;;;;;;7.65;94.26;101398.97;4958358;28;20044;-62
2024/03/21 06:08:55;;;;;;;9.63;5.68;;;;;;;7.67;94.48;101406.97;4963422;28;20452;-65
2024/03/21 06:11:22;;;;;;;7.75;5.25;;;;;;;7.69;94.30;101416.53;4933254;28;20047;-61
2024/03/21 06:13:49;;;;;;;10.70;5.22;;;;;;;7.70;94.18;101409.91;4957517;28;20050;-63
2024/03/21 06:16:17;;;;;;;12.50;5.50;;;;;;;7.71;94.25;101416.22;4961154;28;20134;-62
2024/03/21 06:18:43;;;;;;;15.00;5.53;;;;;;;7.70;94.29;101418.19;4960856;28;20055;-62
2024/03/21 06:21:09;;;;;;;11.48;6.13;;;;;;;7.70;94.36;101412.66;4944733;28;20051;-61
2024/03/21 06:23:36;;;;;;;9.38;5.28;;;;;;;7.71;94.37;101419.78;4948931;28;20051;-61
2024/03/21 06:26:03;;;;;;;9.45;5.75;;;;;;;7.70;94.11;101429.22;4964190;28;20428;-62
2024/03/21 06:28:30;;;;;;;11.68;5.43;;;;;;;7.70;94.43;101420.13;4945757;28;20043;-62
2024/03/21 06:30:57;;;;;;;6.47;4.68;;;;;;;7.69;94.08;101418.47;4964799;28;20051;-62
2024/03/21 06:33:23;;;;;;;11.40;5.63;;;;;;;7.70;94.31;101417.38;4943171;28;20059;-62
2024/03/21 06:35:49;;;;;;;7.72;4.82;;;;;;;7.68;94.42;101412.16;4932679;29;20043;-62
2024/03/21 06:38:15;;;;;;;12.65;5.53;;;;;;;7.66;94.57;101400.63;4931960;28;20048;-63
2024/03/21 06:40:42;;;;;;;10.38;5.25;;;;;;;7.65;94.55;101398.19;4930567;28;20502;-62
2024/03/21 06:43:09;;;;;;;10.50;6.40;;;;;;;7.65;94.64;101390.72;4945492;28;20600;-63
2024/03/21 06:45:37;;;;;;;7.80;5.20;;;;;;;7.64;94.71;101399.31;4964643;28;20058;-63
2024/03/21 06:48:03;;;;;;;14.50;6.57;;;;;;;7.63;94.81;101394.91;4948213;28;20421;-63
2024/03/21 06:50:30;;;;;;;9.85;5.45;;;;;;;7.62;94.81;101387.78;4943092;28;20070;-62
2024/03/21 06:52:57;;;;;;;12.00;5.53;;;;;;;7.62;94.89;101382.28;4940355;29;20039;-62
2024/03/21 06:55:24;;;;;;;12.50;4.93;;;;;;;7.61;94.80;101375.13;4944709;28;20054;-62
2024/03/21 06:57:56;;;;;;;8.68;4.53;;;;;;;7.60;94.74;101379.00;4946849;29;20058;-61
2024/03/21 07:00:27;;;;;;;9.68;5.40;;;;;;;7.61;94.94;101375.94;4947310;28;20051;-62
2024/03/21 07:02:55;;;;;;;7.45;4.57;;;;;;;7.61;94.95;101381.44;4939402;29;20051;-62
2024/03/21 07:05:25;;;;;;;8.95;4.25;;;;;;;7.60;94.75;101368.78;4948421;28;20163;-61
2024/03/21 07:07:52;;;;;;;6.85;4.35;;;;;;;7.60;94.69;101368.78;4964385;28;20052;-61
2024/03/21 07:10:19;;;;;;;8.00;4.40;;;;;;;7.62;94.85;101366.56;4945304;28;20051;-62
2024/03/21 07:12:46;;;;;;;12.05;5.65;;;;;;;7.62;94.57;101365.72;4931173;29;20059;-62
2024/03/21 07:15:16;;;;;;;8.80;4.78;;;;;;;7.61;94.58;101359.41;4946000;28;20052;-62
2024/03/21 07:17:43;;;;;;;7.18;3.83;;;;;;;7.61;94.36;101342.88;4943617;29;20082;-62
2024/03/21 07:20:12;;;;;;;6.70;3.78;;;;;;;7.62;94.35;101343.69;4943874;28;20682;-62
2024/03/21 07:22:39;;;;;;;5.22;3.28;;;;;;;7.62;94.13;101344.50;4947479;28;20153;-62
2024/03/21 07:25:07;;;;;;;9.15;4.70;;;;;;;7.64;94.32;101342.25;4930263;28;20046;-62
2024/03/21 07:27:33;;;;;;;7.55;3.05;;;;;;;7.67;93.99;101349.09;4939952;29;20047;-62
2024/03/21 07:29:59;;;;;;;6.85;3.67;;;;;;;7.69;93.82;101344.88;4944316;28;20045;-63
2024/03/21 07:32:26;;;;;;;4.47;2.83;;;;;;;7.69;93.57;101349.56;4946097;28;20276;-63
2024/03/21 07:34:52;;;;;;;5.97;3.20;;;;;;;7.71;93.44;101347.31;4946460;28;20047;-61
2024/03/21 07:37:18;;;;;;;5.20;3.30;;;;;;;7.72;93.14;101341.50;4942937;28;20089;-63
2024/03/21 07:39:47;;;;;;;4.50;3.28;;;;;;;7.74;93.08;101352.22;4933815;28;20051;-62
2024/03/21 07:42:13;;;;;;;5.28;2.97;;;;;;;7.76;92.95;101345.25;4939043;28;20066;-62
2024/03/21 07:44:39;;;;;;;11.00;4.97;;;;;;;7.78;92.92;101343.00;4945333;28;20046;-62
2024/03/21 07:47:06;;;;;;;6.45;2.70;;;;;;;7.80;92.56;101354.56;4944228;28;20040;-62
2024/03/21 07:49:32;;;;;;;6.90;3.63;;;;;;;7.83;92.42;101348.41;4963101;28;20054;-63
2024/03/21 07:52:01;;;;;;;9.40;4.65;;;;;;;7.86;92.33;101347.78;4947291;29;20412;-63
2024/03/21 07:54:32;;;;;;;4.70;2.70;;;;;;;7.89;92.19;101338.88;4943908;28;20062;-64
2024/03/21 07:56:58;;;;;;;4.30;2.15;;;;;;;7.92;91.97;101327.22;4940203;28;20618;-63
2024/03/21 07:59:25;;;;;;;4.53;2.25;;;;;;;7.96;91.63;101332.94;4944860;28;20046;-63
2024/03/21 08:01:52;;;;;;;3.75;2.03;;;;;;;8.02;91.49;101325.38;4947270;28;20062;-64
2024/03/21 08:04:18;;;;;;;3.53;2.05;;;;;;;8.06;91.37;101326.34;4946225;28;20042;-62
2024/03/21 08:06:46;;;;;;;4.32;2.63;;;;;;;8.10;91.37;101321.84;4948457;28;20047;-64
2024/03/21 08:09:12;;;;;;;4.72;2.15;;;;;;;8.16;90.97;101320.56;4928569;28;20054;-64
2024/03/21 08:11:39;;;;;;;4.05;2.40;;;;;;;8.22;90.81;101308.28;4938490;28;20763;-64
2024/03/21 08:14:06;;;;;;;5.65;2.10;;;;;;;8.28;90.81;101301.53;4945225;28;20075;-63
2024/03/21 08:16:33;;;;;;;3.17;1.98;;;;;;;8.36;90.35;101300.78;4944796;28;20418;-63
2024/03/21 08:19:00;;;;;;;4.10;2.28;;;;;;;8.45;90.25;101299.69;4945030;28;20435;-64
2024/03/21 08:21:26;;;;;;;2.92;1.35;;;;;;;8.49;89.72;101297.09;4937562;28;20425;-63
2024/03/21 08:23:52;;;;;;;3.20;1.95;;;;;;;8.54;89.69;101288.69;4923450;28;20047;-63
2024/03/21 08:26:19;;;;;;;4.38;1.30;;;;;;;8.57;89.17;101293.56;4921475;28;20066;-63
2024/03/21 08:28:45;;;;;;;4.95;1.50;;;;;;;8.62;89.10;101289.84;4920852;28;20051;-64
2024/03/21 08:31:11;;;;;;;4.35;1.83;;;;;;;8.69;88.87;101295.72;4918907;28;20051;-63
2024/03/21 08:33:38;;;;;;;2.88;0.98;;;;;;;8.74;88.57;101301.09;4923566;29;20051;-63
2024/03/21 08:36:04;;;;;;;4.88;1.23;;;;;;;8.80;87.94;101297.88;4940052;28;20059;-63
2024/03/21 08:38:31;;;;;;;4.80;1.13;;;;;;;8.84;87.58;101293.31;4961697;28;20044;-62
2024/03/21 08:40:57;;;;;;;1.48;0.80;;;;;;;8.87;86.76;101281.66;4936113;28;20043;-63
2024/03/21 08:43:24;;;;;;;2.97;1.08;;;;;;;8.92;86.38;101289.78;4945818;28;20043;-63
2024/03/21 08:45:52;;;;;;;2.78;0.80;;;;;;;8.94;85.73;101281.19;4943871;28;20409;-64
2024/03/21 08:48:19;;;;;;;3.10;1.10;;;;;;;8.94;84.88;101276.47;4943042;28;20048;-63
2024/03/21 08:50:47;;;;;;;2.03;1.10;;;;;;;8.97;84.60;101284.13;4945219;28;20629;-65
2024/03/21 08:53:17;;;;;;;3.03;1.35;;;;;;;9.02;84.16;101294.19;4945434;28;20051;-64
2024/03/21 08:55:44;;;;;;;1.73;1.00;;;;;;;9.02;83.46;101289.50;4946330;28;20063;-65
2024/03/21 08:58:10;;;;;;;3.90;0.90;;;;;;;9.05;83.21;101283.31;4948467;28;20054;-65
2024/03/21 09:00:40;;;;;;;1.88;1.10;;;;;;;9.05;82.79;101283.31;4934195;29;20052;-60
2024/03/21 09:03:08;;;;;;;2.20;0.85;;;;;;;9.10;82.33;101280.41;4949417;28;20524;-64
2024/03/21 09:05:34;;;;;;;3.28;1.00;;;;;;;9.12;82.08;101280.09;4941269;28;20051;-64
2024/03/21 09:08:01;;;;;;;3.65;1.27;;;;;;;9.14;81.64;101284.16;4950454;28;20047;-64
2024/03/21 09:10:28;;;;;;;6.57;1.15;;;;;;;9.15;81.04;101283.03;4946093;28;20059;-64
2024/03/21 09:12:55;;;;;;;3.38;1.33;;;;;;;9.16;80.72;101287.41;4949599;28;20990;-66
2024/03/21 09:15:21;;;;;;;1.98;1.00;;;;;;;9.19;80.08;101288.69;4938506;28;20050;-64
2024/03/21 09:17:47;;;;;;;3.15;0.88;;;;;;;9.21;79.93;101285.63;4948326;28;20513;-64
2024/03/21 09:20:14;;;;;;;8.57;1.60;;;;;;;9.24;79.83;101279.47;4948819;28;21098;-64
2024/03/21 09:22:40;;;;;;;4.38;1.40;;;;;;;9.27;79.83;101278.78;4933430;29;20043;-64
2024/03/21 09:25:07;;;;;;;8.73;1.20;;;;;;;9.32;79.40;101278.66;4947009;28;20063;-64
2024/03/21 09:27:33;;;;;;;6.90;1.52;;;;;;;9.35;79.46;101280.75;4948900;28;20094;-65
2024/03/21 09:30:00;;;;;;;10.13;2.30;;;;;;;9.37;79.21;101278.50;4949298;28;20066;-65
2024/03/21 09:32:26;;;;;;;7.97;3.53;;;;;;;9.43;78.89;101282.72;4939803;28;20063;-66
2024/03/21 09:34:52;;;;;;;3.13;1.15;;;;;;;9.50;78.61;101260.94;4948856;28;20051;-65
2024/03/21 09:37:19;;;;;;;4.05;1.05;;;;;;;9.60;78.36;101271.66;4948836;28;20051;-65
2024/03/21 09:39:45;;;;;;;7.18;1.50;;;;;;;9.66;78.36;101279.44;4934613;28;20051;-65
2024/03/21 09:42:17;;;;;;;2.13;1.00;;;;;;;9.68;78.11;101268.09;4949589;28;20047;-66
2024/03/21 09:44:48;;;;;;;10.60;1.98;;;;;;;9.67;77.65;101272.78;4944756;28;20800;-64
2024/03/21 09:47:23;;;;;;;7.28;1.60;;;;;;;9.68;77.38;101268.09;4946927;28;20047;-65
2024/03/21 09:49:50;;;;;;;3.33;0.80;;;;;;;9.76;77.67;101264.50;4946896;28;20072;-64
2024/03/21 09:52:17;;;;;;;4.75;0.90;;;;;;;9.86;77.36;101271.63;4947977;28;20394;-65
2024/03/21 09:54:43;;;;;;;5.93;0.85;;;;;;;9.95;77.09;101256.66;4947373;28;20066;-64
2024/03/21 09:57:12;;;;;;;7.43;2.13;;;;;;;10.04;77.17;101274.03;4948894;28;20035;-66
2024/03/21 09:59:40;;;;;;;3.38;1.02;;;;;;;10.09;76.91;101262.81;4948004;28;20058;-65
2024/03/21 10:02:13;;;;;;;4.53;0.80;;;;;;;10.10;76.27;101267.22;4946266;28;20067;-65
2024/03/21 10:04:44;;;;;;;1.70;0.47;;;;;;;10.11;76.49;101257.75;4937542;29;20417;-65
2024/03/21 10:07:16;;;;;;;2.27;1.00;;;;;;;10.12;76.54;101264.94;4937643;28;20054;-64
2024/03/21 10:09:51;;;;;;;10.02;0.70;;;;;;;10.10;76.27;101261.66;4948518;28;20063;-64
2024/03/21 10:12:17;;;;;;;8.30;1.20;;;;;;;10.09;76.20;101243.44;4944799;28;20520;-64
2024/03/21 10:14:43;;;;;;;2.55;0.60;;;;;;;10.07;76.36;101248.50;4924599;29;20055;-65
2024/03/21 10:17:10;;;;;;;6.93;0.85;;;;;;;10.08;76.14;101260.38;4947648;28;20043;-65
2024/03/21 10:19:36;;;;;;;2.45;0.90;;;;;;;10.08;76.25;101255.66;4945232;28;20047;-64
2024/03/21 10:22:03;;;;;;;1.88;0.85;;;;;;;10.08;76.34;101261.19;4947181;28;20610;-65
2024/03/21 10:24:30;;;;;;;2.60;0.80;;;;;;;10.07;76.31;101254.03;4931042;29;20051;-64
2024/03/21 10:27:00;;;;;;;4.25;0.80;;;;;;;10.04;76.57;101260.22;4933378;28;20043;-65
2024/03/21 10:29:27;;;;;;;4.88;0.88;;;;;;;10.05;76.60;101256.31;4948993;28;20043;-65
2024/03/21 10:31:54;;;;;;;2.22;0.82;;;;;;;10.05;76.57;101248.03;4943754;28;20062;-65
2024/03/21 10:34:23;;;;;;;6.22;1.10;;;;;;;10.06;76.56;101238.56;4948158;29;20047;-65
2024/03/21 10:36:49;;;;;;;3.08;1.33;;;;;;;10.09;76.58;101245.38;4932710;29;20035;-65
2024/03/21 10:39:17;;;;;;;6.97;1.00;;;;;;;10.12;76.54;101244.72;4958050;28;20055;-65
2024/03/21 10:41:44;;;;;;;4.05;1.17;;;;;;;10.16;76.59;101224.44;4951446;28;20501;-65
2024/03/21 10:44:15;;;;;;;4.88;1.02;;;;;;;10.23;76.87;101234.97;4945817;28;20468;-65
2024/03/21 10:46:41;;;;;;;2.58;0.90;;;;;;;10.31;76.82;101221.09;4962337;28;20066;-65
2024/03/21 10:49:14;;;;;;;3.75;1.38;;;;;;;10.40;76.93;101230.16;4947272;28;20051;-65
2024/03/21 10:51:43;;;;;;;2.75;1.20;;;;;;;10.51;76.84;101230.59;4946976;28;20047;-65
2024/03/21 10:54:13;;;;;;;4.05;1.05;;;;;;;10.63;77.12;101227.13;4943021;28;20058;-65
2024/03/21 10:56:41;;;;;;;6.55;1.00;;;;;;;10.77;77.12;101238.81;4945292;28;20058;-66
2024/03/21 10:59:14;;;;;;;5.25;1.10;;;;;;;10.93;77.15;101210.16;4946485;28;20066;-65
2024/03/21 11:01:43;;;;;;;3.72;1.70;;;;;;;11.07;77.12;101225.75;4940871;28;20139;-65
2024/03/21 11:04:17;;;;;;;6.03;1.02;;;;;;;11.16;76.99;101218.97;4943339;28;20040;-66
2024/03/21 11:06:47;;;;;;;2.97;0.80;;;;;;;11.22;77.03;101208.50;4945339;28;20055;-65
2024/03/21 11:09:15;;;;;;;2.50;0.80;;;;;;;11.23;77.49;101222.00;4940724;28;20048;-65
2024/03/21 11:11:41;;;;;;;1.17;0.60;;;;;;;11.28;77.54;101230.13;4927922;29;20047;-65
2024/03/21 11:14:10;;;;;;;4.50;1.35;;;;;;;11.33;77.80;101221.59;4939309;28;20067;-65
2024/03/21 11:16:40;;;;;;;3.72;0.88;;;;;;;11.43;77.91;101226.75;4944601;28;20055;-66
2024/03/21 11:19:09;;;;;;;5.57;1.17;;;;;;;11.60;78.08;101214.69;4931456;29;20861;-64
2024/03/21 11:21:35;;;;;;;6.72;1.17;;;;;;;11.76;78.02;101223.19;4937035;29;20055;-65
2024/03/21 11:24:01;;;;;;;4.80;1.00;;;;;;;11.91;77.90;101222.59;4942010;28;20059;-66
2024/03/21 11:26:28;;;;;;;3.85;0.73;;;;;;;11.99;78.02;101207.81;4941880;28;20744;-65
2024/03/21 11:28:54;;;;;;;4.68;0.95;;;;;;;12.07;78.02;101212.44;4931094;29;20063;-66